PWSweather.com
Personal Weather Stations
Station Observations
UWIDEPER1
Brown County, Depere, WI 54115

Brown CountyDepere, WI 54115

Lat: 44.44, Lon: -88.05

Elevation: 610

Station Type: Acurite 5in1

www.depereweather.com

High Low Average
Temperature 83.7°F28.7°C 58.8°F14.9°C 73.3°F22.9°C
Dew Point 66.4°F19.1°C 52.0°F11.1°C 57.6°F14.2°C
Winds 10.4 mph 16.7 kmh Calm Calm 4.0 mph WSW6.4 kmh WSW
Wind Gusts 16.1 mph25.9 kmh -- 5.0 mph8.0 kmh
Humidity 91% 35% 61%
Pressure 29.95 in1014.2 mb 29.73 in1006.8 mb -
Precipitation 0.00 in0.0 mm - -
Hour Temp Dew Point Humidity Winds Wind Gusts Pressure Precip Precip Rate Daily Precip Total
12:00 AM 67.3°F19.6°C 65.2°F18.4°C 93% Calm Calm 1.2 mph1.9 kmh 29.77 in1008.1 mb - 0.00 in0.0 mm 0.00 in0.0 mm
12:10 AM 67.6°F19.8°C 65.5°F18.6°C 93% Calm Calm 1.2 mph1.9 kmh 29.76 in1007.8 mb - 0.00 in0.0 mm 0.00 in0.0 mm
12:15 AM 67.9°F19.9°C 65.8°F18.8°C 93% Calm Calm -- 29.76 in1007.8 mb - 0.00 in0.0 mm 0.00 in0.0 mm
12:20 AM 68.0°F20.0°C 65.9°F18.8°C 93% Calm Calm 1.2 mph1.9 kmh 29.77 in1008.1 mb - 0.00 in0.0 mm 0.00 in0.0 mm
12:25 AM 68.2°F20.1°C 66.1°F18.9°C 93% 1.2 mph SSW1.9 kmh SSW 3.5 mph5.6 kmh 29.76 in1007.8 mb - 0.00 in0.0 mm 0.00 in0.0 mm
12:30 AM 68.4°F20.2°C 65.6°F18.7°C 91% 2.3 mph SSW3.7 kmh SSW 2.3 mph3.7 kmh 29.77 in1008.1 mb - 0.00 in0.0 mm 0.00 in0.0 mm
12:35 AM 68.4°F20.2°C 65.6°F18.7°C 91% 1.2 mph SSW1.9 kmh SSW 3.5 mph5.6 kmh 29.77 in1008.1 mb - 0.00 in0.0 mm 0.00 in0.0 mm
12:40 AM 68.5°F20.3°C 65.8°F18.8°C 91% 2.3 mph SW3.7 kmh SW 2.3 mph3.7 kmh 29.78 in1008.5 mb - 0.00 in0.0 mm 0.00 in0.0 mm
12:45 AM 68.6°F20.3°C 65.9°F18.8°C 91% 1.2 mph S1.9 kmh S 3.5 mph5.6 kmh 29.77 in1008.1 mb - 0.00 in0.0 mm 0.00 in0.0 mm
12:50 AM 69.1°F20.6°C 66.3°F19.1°C 91% 2.3 mph S3.7 kmh S 2.3 mph3.7 kmh 29.77 in1008.1 mb - 0.00 in0.0 mm 0.00 in0.0 mm
12:55 AM 69.4°F20.8°C 66.6°F19.2°C 91% 2.3 mph S3.7 kmh S 3.5 mph5.6 kmh 29.76 in1007.8 mb - 0.00 in0.0 mm 0.00 in0.0 mm
01:00 AM 69.4°F20.8°C 66.4°F19.1°C 90% 1.2 mph S1.9 kmh S -- 29.75 in1007.5 mb - 0.00 in0.0 mm 0.00 in0.0 mm
01:10 AM 69.1°F20.6°C 66.0°F18.9°C 90% 1.2 mph SSW1.9 kmh SSW -- 29.75 in1007.5 mb - 0.00 in0.0 mm 0.00 in0.0 mm
01:15 AM 68.9°F20.5°C 65.8°F18.8°C 90% Calm Calm 2.3 mph3.7 kmh 29.75 in1007.5 mb - 0.00 in0.0 mm 0.00 in0.0 mm
01:20 AM 68.5°F20.3°C 65.5°F18.6°C 90% 1.2 mph SSW1.9 kmh SSW -- 29.75 in1007.5 mb - 0.00 in0.0 mm 0.00 in0.0 mm
01:25 AM 68.4°F20.2°C 65.3°F18.5°C 90% Calm Calm -- 29.75 in1007.5 mb - 0.00 in0.0 mm 0.00 in0.0 mm
01:30 AM 68.4°F20.2°C 65.3°F18.5°C 90% 1.2 mph W1.9 kmh W 1.2 mph1.9 kmh 29.75 in1007.5 mb - 0.00 in0.0 mm 0.00 in0.0 mm
01:35 AM 68.4°F20.2°C 65.6°F18.7°C 91% Calm Calm 3.5 mph5.6 kmh 29.75 in1007.5 mb - 0.00 in0.0 mm 0.00 in0.0 mm
01:40 AM 68.4°F20.2°C 65.6°F18.7°C 91% 1.2 mph WSW1.9 kmh WSW 2.3 mph3.7 kmh 29.75 in1007.5 mb - 0.00 in0.0 mm 0.00 in0.0 mm
01:45 AM 68.5°F20.3°C 65.7°F18.7°C 91% 1.2 mph S1.9 kmh S 2.3 mph3.7 kmh 29.75 in1007.5 mb - 0.00 in0.0 mm 0.00 in0.0 mm
01:50 AM 68.9°F20.5°C 66.2°F19.0°C 91% 1.2 mph S1.9 kmh S 2.3 mph3.7 kmh 29.75 in1007.5 mb - 0.00 in0.0 mm 0.00 in0.0 mm
01:55 AM 69.1°F20.6°C 66.0°F18.9°C 90% 2.3 mph SW3.7 kmh SW 2.3 mph3.7 kmh 29.74 in1007.1 mb - 0.00 in0.0 mm 0.00 in0.0 mm
02:00 AM 69.3°F20.7°C 66.2°F19.0°C 90% 2.3 mph SW3.7 kmh SW 3.5 mph5.6 kmh 29.74 in1007.1 mb - 0.00 in0.0 mm 0.00 in0.0 mm
02:10 AM 69.4°F20.8°C 66.4°F19.1°C 90% 2.3 mph SW3.7 kmh SW 2.3 mph3.7 kmh 29.75 in1007.5 mb - 0.00 in0.0 mm 0.00 in0.0 mm
02:15 AM 69.4°F20.8°C 66.4°F19.1°C 90% 2.3 mph SW3.7 kmh SW 4.6 mph7.4 kmh 29.74 in1007.1 mb - 0.00 in0.0 mm 0.00 in0.0 mm
02:20 AM 69.4°F20.8°C 65.7°F18.7°C 88% 2.3 mph SW3.7 kmh SW 3.5 mph5.6 kmh 29.75 in1007.5 mb - 0.00 in0.0 mm 0.00 in0.0 mm
02:25 AM 69.6°F20.9°C 65.9°F18.8°C 88% 2.3 mph SSE3.7 kmh SSE 3.5 mph5.6 kmh 29.75 in1007.5 mb - 0.00 in0.0 mm 0.00 in0.0 mm
02:30 AM 69.8°F21.0°C 66.1°F18.9°C 88% 2.3 mph WSW3.7 kmh WSW 3.5 mph5.6 kmh 29.75 in1007.5 mb - 0.00 in0.0 mm 0.00 in0.0 mm
02:35 AM 69.8°F21.0°C 66.1°F18.9°C 88% 2.3 mph SSW3.7 kmh SSW 5.8 mph9.3 kmh 29.74 in1007.1 mb - 0.00 in0.0 mm 0.00 in0.0 mm
02:40 AM 69.8°F21.0°C 66.1°F18.9°C 88% 3.5 mph SW5.6 kmh SW 2.3 mph3.7 kmh 29.74 in1007.1 mb - 0.00 in0.0 mm 0.00 in0.0 mm
02:45 AM 69.8°F21.0°C 66.1°F18.9°C 88% 2.3 mph WSW3.7 kmh WSW 4.6 mph7.4 kmh 29.74 in1007.1 mb - 0.00 in0.0 mm 0.00 in0.0 mm
02:50 AM 69.8°F21.0°C 66.1°F18.9°C 88% 3.5 mph SSW5.6 kmh SSW 4.6 mph7.4 kmh 29.74 in1007.1 mb - 0.00 in0.0 mm 0.00 in0.0 mm
02:55 AM 69.8°F21.0°C 66.1°F18.9°C 88% 2.3 mph SW3.7 kmh SW 3.5 mph5.6 kmh 29.74 in1007.1 mb - 0.00 in0.0 mm 0.00 in0.0 mm
03:00 AM 69.8°F21.0°C 66.1°F18.9°C 88% 3.5 mph SW5.6 kmh SW 4.6 mph7.4 kmh 29.74 in1007.1 mb - 0.00 in0.0 mm 0.00 in0.0 mm
03:10 AM 69.8°F21.0°C 66.1°F18.9°C 88% 2.3 mph W3.7 kmh W 4.6 mph7.4 kmh 29.74 in1007.1 mb - 0.00 in0.0 mm 0.00 in0.0 mm
03:15 AM 69.8°F21.0°C 66.1°F18.9°C 88% 3.5 mph SSW5.6 kmh SSW 4.6 mph7.4 kmh 29.75 in1007.5 mb - 0.00 in0.0 mm 0.00 in0.0 mm
03:20 AM 69.8°F21.0°C 66.1°F18.9°C 88% 2.3 mph S3.7 kmh S 4.6 mph7.4 kmh 29.74 in1007.1 mb - 0.00 in0.0 mm 0.00 in0.0 mm
03:25 AM 69.8°F21.0°C 66.1°F18.9°C 88% 3.5 mph SW5.6 kmh SW 2.3 mph3.7 kmh 29.74 in1007.1 mb - 0.00 in0.0 mm 0.00 in0.0 mm
03:30 AM 69.8°F21.0°C 66.1°F18.9°C 88% 2.3 mph SSW3.7 kmh SSW 3.5 mph5.6 kmh 29.73 in1006.8 mb - 0.00 in0.0 mm 0.00 in0.0 mm
03:35 AM 69.8°F21.0°C 66.1°F18.9°C 88% 2.3 mph SW3.7 kmh SW 2.3 mph3.7 kmh 29.73 in1006.8 mb - 0.00 in0.0 mm 0.00 in0.0 mm
03:40 AM 69.8°F21.0°C 66.1°F18.9°C 88% 1.2 mph S1.9 kmh S 3.5 mph5.6 kmh 29.73 in1006.8 mb - 0.00 in0.0 mm 0.00 in0.0 mm
03:45 AM 69.8°F21.0°C 66.1°F18.9°C 88% 2.3 mph S3.7 kmh S 3.5 mph5.6 kmh 29.73 in1006.8 mb - 0.00 in0.0 mm 0.00 in0.0 mm
03:50 AM 69.8°F21.0°C 66.1°F18.9°C 88% 2.3 mph SW3.7 kmh SW 3.5 mph5.6 kmh 29.73 in1006.8 mb - 0.00 in0.0 mm 0.00 in0.0 mm
03:55 AM 69.8°F21.0°C 66.1°F18.9°C 88% 1.2 mph SW1.9 kmh SW 3.5 mph5.6 kmh 29.73 in1006.8 mb - 0.00 in0.0 mm 0.00 in0.0 mm
04:00 AM 69.8°F21.0°C 66.1°F18.9°C 88% 2.3 mph SW3.7 kmh SW 3.5 mph5.6 kmh 29.73 in1006.8 mb - 0.00 in0.0 mm 0.00 in0.0 mm
04:10 AM 69.8°F21.0°C 66.1°F18.9°C 88% 2.3 mph SW3.7 kmh SW 3.5 mph5.6 kmh 29.73 in1006.8 mb - 0.00 in0.0 mm 0.00 in0.0 mm
04:15 AM 69.8°F21.0°C 66.1°F18.9°C 88% 3.5 mph SW5.6 kmh SW 6.9 mph11.1 kmh 29.73 in1006.8 mb - 0.00 in0.0 mm 0.00 in0.0 mm
04:20 AM 69.8°F21.0°C 66.1°F18.9°C 88% 3.5 mph WNW5.6 kmh WNW 6.9 mph11.1 kmh 29.73 in1006.8 mb - 0.00 in0.0 mm 0.00 in0.0 mm
04:25 AM 69.8°F21.0°C 66.1°F18.9°C 88% 4.6 mph SW7.4 kmh SW 5.8 mph9.3 kmh 29.74 in1007.1 mb - 0.00 in0.0 mm 0.00 in0.0 mm
04:30 AM 69.8°F21.0°C 66.1°F18.9°C 88% 4.6 mph WSW7.4 kmh WSW 5.8 mph9.3 kmh 29.74 in1007.1 mb - 0.00 in0.0 mm 0.00 in0.0 mm
04:35 AM 69.8°F21.0°C 66.1°F18.9°C 88% 4.6 mph SW7.4 kmh SW 8.1 mph13.0 kmh 29.75 in1007.5 mb - 0.00 in0.0 mm 0.00 in0.0 mm
04:40 AM 69.8°F21.0°C 66.1°F18.9°C 88% 4.6 mph SW7.4 kmh SW 6.9 mph11.1 kmh 29.75 in1007.5 mb - 0.00 in0.0 mm 0.00 in0.0 mm
04:45 AM 69.6°F20.9°C 65.9°F18.8°C 88% 3.5 mph SW5.6 kmh SW 8.1 mph13.0 kmh 29.74 in1007.1 mb - 0.00 in0.0 mm 0.00 in0.0 mm
04:50 AM 69.4°F20.8°C 65.7°F18.7°C 88% 3.5 mph WSW5.6 kmh WSW 3.5 mph5.6 kmh 29.74 in1007.1 mb - 0.00 in0.0 mm 0.00 in0.0 mm
04:55 AM 69.3°F20.7°C 65.6°F18.7°C 88% 3.5 mph SW5.6 kmh SW 5.8 mph9.3 kmh 29.75 in1007.5 mb - 0.00 in0.0 mm 0.00 in0.0 mm
05:00 AM 69.1°F20.6°C 65.4°F18.6°C 88% 3.5 mph SW5.6 kmh SW 4.6 mph7.4 kmh 29.74 in1007.1 mb - 0.00 in0.0 mm 0.00 in0.0 mm
05:10 AM 68.5°F20.3°C 64.8°F18.2°C 88% 3.5 mph SSW5.6 kmh SSW 4.6 mph7.4 kmh 29.75 in1007.5 mb - 0.00 in0.0 mm 0.00 in0.0 mm
05:15 AM 68.5°F20.3°C 64.8°F18.2°C 88% 3.5 mph W5.6 kmh W 6.9 mph11.1 kmh 29.75 in1007.5 mb - 0.00 in0.0 mm 0.00 in0.0 mm
05:20 AM 68.4°F20.2°C 64.7°F18.2°C 88% 4.6 mph WSW7.4 kmh WSW 5.8 mph9.3 kmh 29.75 in1007.5 mb - 0.00 in0.0 mm 0.00 in0.0 mm
05:25 AM 68.4°F20.2°C 64.7°F18.2°C 88% 3.5 mph WSW5.6 kmh WSW 4.6 mph7.4 kmh 29.75 in1007.5 mb - 0.00 in0.0 mm 0.00 in0.0 mm
05:30 AM 68.3°F20.2°C 64.6°F18.1°C 88% 4.6 mph WNW7.4 kmh WNW 6.9 mph11.1 kmh 29.75 in1007.5 mb - 0.00 in0.0 mm 0.00 in0.0 mm
05:35 AM 68.2°F20.1°C 64.5°F18.1°C 88% 3.5 mph WNW5.6 kmh WNW 4.6 mph7.4 kmh 29.75 in1007.5 mb - 0.00 in0.0 mm 0.00 in0.0 mm
05:40 AM 67.8°F19.9°C 63.1°F17.3°C 85% 4.6 mph NW7.4 kmh NW 6.9 mph11.1 kmh 29.77 in1008.1 mb - 0.00 in0.0 mm 0.00 in0.0 mm
05:45 AM 67.5°F19.7°C 62.1°F16.7°C 83% 5.8 mph NW9.3 kmh NW 9.2 mph14.8 kmh 29.77 in1008.1 mb - 0.00 in0.0 mm 0.00 in0.0 mm
05:50 AM 67.5°F19.7°C 62.1°F16.7°C 83% 5.8 mph NE9.3 kmh NE 11.5 mph18.5 kmh 29.77 in1008.1 mb - 0.00 in0.0 mm 0.00 in0.0 mm
05:55 AM 67.5°F19.7°C 62.1°F16.7°C 83% 5.8 mph NNW9.3 kmh NNW 8.1 mph13.0 kmh 29.77 in1008.1 mb - 0.00 in0.0 mm 0.00 in0.0 mm
06:00 AM 67.2°F19.6°C 61.9°F16.6°C 83% 5.8 mph WNW9.3 kmh WNW 8.1 mph13.0 kmh 29.77 in1008.1 mb - 0.00 in0.0 mm 0.00 in0.0 mm
06:10 AM 66.9°F19.4°C 61.6°F16.4°C 83% 3.5 mph W5.6 kmh W 5.8 mph9.3 kmh 29.77 in1008.1 mb - 0.00 in0.0 mm 0.00 in0.0 mm
06:15 AM 66.6°F19.2°C 61.2°F16.2°C 83% 4.6 mph E7.4 kmh E 5.8 mph9.3 kmh 29.77 in1008.1 mb - 0.00 in0.0 mm 0.00 in0.0 mm
06:20 AM 66.6°F19.2°C 61.2°F16.2°C 83% 3.5 mph W5.6 kmh W 2.3 mph3.7 kmh 29.78 in1008.5 mb - 0.00 in0.0 mm 0.00 in0.0 mm
06:25 AM 66.6°F19.2°C 61.2°F16.2°C 83% 3.5 mph WSW5.6 kmh WSW 6.9 mph11.1 kmh 29.78 in1008.5 mb - 0.00 in0.0 mm 0.00 in0.0 mm
06:30 AM 66.6°F19.2°C 61.2°F16.2°C 83% 3.5 mph SW5.6 kmh SW 9.2 mph14.8 kmh 29.79 in1008.8 mb - 0.00 in0.0 mm 0.00 in0.0 mm
06:35 AM 66.6°F19.2°C 61.2°F16.2°C 83% 3.5 mph WSW5.6 kmh WSW 4.6 mph7.4 kmh 29.79 in1008.8 mb - 0.00 in0.0 mm 0.00 in0.0 mm
06:40 AM 66.6°F19.2°C 60.5°F15.8°C 81% 5.8 mph NW9.3 kmh NW 4.6 mph7.4 kmh 29.79 in1008.8 mb - 0.00 in0.0 mm 0.00 in0.0 mm
06:45 AM 66.4°F19.1°C 60.4°F15.8°C 81% 4.6 mph SW7.4 kmh SW 6.9 mph11.1 kmh 29.79 in1008.8 mb - 0.00 in0.0 mm 0.00 in0.0 mm
06:50 AM 66.4°F19.1°C 60.4°F15.8°C 81% 6.9 mph SW11.1 kmh SW 9.2 mph14.8 kmh 29.80 in1009.1 mb - 0.00 in0.0 mm 0.00 in0.0 mm
06:55 AM 66.4°F19.1°C 60.4°F15.8°C 81% 5.8 mph W9.3 kmh W 13.8 mph22.2 kmh 29.81 in1009.5 mb - 0.00 in0.0 mm 0.00 in0.0 mm
07:00 AM 66.6°F19.2°C 60.2°F15.7°C 80% 5.8 mph SW9.3 kmh SW 6.9 mph11.1 kmh 29.81 in1009.5 mb - 0.00 in0.0 mm 0.00 in0.0 mm
07:10 AM 67.3°F19.6°C 60.5°F15.8°C 79% 8.1 mph WSW13.0 kmh WSW 9.2 mph14.8 kmh 29.82 in1009.8 mb - 0.00 in0.0 mm 0.00 in0.0 mm
07:15 AM 67.8°F19.9°C 60.7°F15.9°C 78% 5.8 mph W9.3 kmh W 6.9 mph11.1 kmh 29.82 in1009.8 mb - 0.00 in0.0 mm 0.00 in0.0 mm
07:20 AM 68.2°F20.1°C 60.3°F15.7°C 76% 5.8 mph WNW9.3 kmh WNW 11.5 mph18.5 kmh 29.82 in1009.8 mb - 0.00 in0.0 mm 0.00 in0.0 mm
07:25 AM 68.0°F20.0°C 59.8°F15.4°C 75% 6.9 mph NW11.1 kmh NW 5.8 mph9.3 kmh 29.82 in1009.8 mb - 0.00 in0.0 mm 0.00 in0.0 mm
07:30 AM 68.4°F20.2°C 60.2°F15.7°C 75% 5.8 mph NW9.3 kmh NW 10.4 mph16.7 kmh 29.82 in1009.8 mb - 0.00 in0.0 mm 0.00 in0.0 mm
07:35 AM 68.5°F20.3°C 60.3°F15.7°C 75% 6.9 mph NNE11.1 kmh NNE 6.9 mph11.1 kmh 29.82 in1009.8 mb - 0.00 in0.0 mm 0.00 in0.0 mm
07:40 AM 69.0°F20.6°C 60.8°F16.0°C 75% 3.5 mph WSW5.6 kmh WSW 4.6 mph7.4 kmh 29.82 in1009.8 mb - 0.00 in0.0 mm 0.00 in0.0 mm
07:45 AM 69.4°F20.8°C 60.8°F16.0°C 74% 6.9 mph NW11.1 kmh NW 8.1 mph13.0 kmh 29.82 in1009.8 mb - 0.00 in0.0 mm 0.00 in0.0 mm
07:50 AM 69.3°F20.7°C 60.2°F15.7°C 73% 8.1 mph NW13.0 kmh NW 10.4 mph16.7 kmh 29.82 in1009.8 mb - 0.00 in0.0 mm 0.00 in0.0 mm
07:55 AM 69.4°F20.8°C 59.6°F15.3°C 71% 5.8 mph SSW9.3 kmh SSW 3.5 mph5.6 kmh 29.82 in1009.8 mb - 0.00 in0.0 mm 0.00 in0.0 mm
08:00 AM 70.3°F21.3°C 60.1°F15.6°C 70% 4.6 mph NNW7.4 kmh NNW 3.5 mph5.6 kmh 29.83 in1010.2 mb - 0.00 in0.0 mm 0.00 in0.0 mm
08:10 AM 70.5°F21.4°C 60.3°F15.7°C 70% 4.6 mph NW7.4 kmh NW 9.2 mph14.8 kmh 29.83 in1010.2 mb - 0.00 in0.0 mm 0.00 in0.0 mm
08:15 AM 70.9°F21.6°C 60.2°F15.7°C 69% 5.8 mph NNW9.3 kmh NNW 8.1 mph13.0 kmh 29.83 in1010.2 mb - 0.00 in0.0 mm 0.00 in0.0 mm
08:20 AM 71.4°F21.9°C 60.7°F15.9°C 69% 5.8 mph W9.3 kmh W 10.4 mph16.7 kmh 29.83 in1010.2 mb - 0.00 in0.0 mm 0.00 in0.0 mm
08:25 AM 71.1°F21.7°C 59.1°F15.1°C 66% 6.9 mph NNW11.1 kmh NNW 11.5 mph18.5 kmh 29.83 in1010.2 mb - 0.00 in0.0 mm 0.00 in0.0 mm
08:30 AM 71.3°F21.8°C 59.4°F15.2°C 66% 5.8 mph W9.3 kmh W 4.6 mph7.4 kmh 29.84 in1010.5 mb - 0.00 in0.0 mm 0.00 in0.0 mm
08:35 AM 71.7°F22.1°C 59.8°F15.4°C 66% 4.6 mph WNW7.4 kmh WNW 4.6 mph7.4 kmh 29.84 in1010.5 mb - 0.00 in0.0 mm 0.00 in0.0 mm
08:40 AM 71.8°F22.1°C 59.8°F15.4°C 66% 4.6 mph W7.4 kmh W 5.8 mph9.3 kmh 29.84 in1010.5 mb - 0.00 in0.0 mm 0.00 in0.0 mm
08:45 AM 72.6°F22.6°C 59.3°F15.2°C 63% 5.8 mph WSW9.3 kmh WSW 9.2 mph14.8 kmh 29.84 in1010.5 mb - 0.00 in0.0 mm 0.00 in0.0 mm
08:50 AM 72.7°F22.6°C 59.3°F15.2°C 63% 3.5 mph W5.6 kmh W 5.8 mph9.3 kmh 29.84 in1010.5 mb - 0.00 in0.0 mm 0.00 in0.0 mm
08:55 AM 73.0°F22.8°C 58.8°F14.9°C 61% 5.8 mph W9.3 kmh W 6.9 mph11.1 kmh 29.84 in1010.5 mb - 0.00 in0.0 mm 0.00 in0.0 mm
09:00 AM 73.0°F22.8°C 58.8°F14.9°C 61% 5.8 mph NW9.3 kmh NW 6.9 mph11.1 kmh 29.85 in1010.8 mb - 0.00 in0.0 mm 0.00 in0.0 mm
09:10 AM 73.8°F23.2°C 59.1°F15.1°C 60% 4.6 mph NW7.4 kmh NW 9.2 mph14.8 kmh 29.85 in1010.8 mb - 0.00 in0.0 mm 0.00 in0.0 mm
09:15 AM 74.3°F23.5°C 59.5°F15.3°C 60% 5.8 mph NW9.3 kmh NW 11.5 mph18.5 kmh 29.86 in1011.2 mb - 0.00 in0.0 mm 0.00 in0.0 mm
09:20 AM 73.9°F23.3°C 58.7°F14.8°C 59% 5.8 mph WSW9.3 kmh WSW 4.6 mph7.4 kmh 29.86 in1011.2 mb - 0.00 in0.0 mm 0.00 in0.0 mm
09:25 AM 74.6°F23.7°C 58.8°F14.9°C 58% 4.6 mph W7.4 kmh W 5.8 mph9.3 kmh 29.86 in1011.2 mb - 0.00 in0.0 mm 0.00 in0.0 mm
09:30 AM 74.4°F23.6°C 57.2°F14.0°C 55% 6.9 mph WNW11.1 kmh WNW 13.8 mph22.2 kmh 29.86 in1011.2 mb - 0.00 in0.0 mm 0.00 in0.0 mm
09:35 AM 74.2°F23.4°C 56.4°F13.6°C 54% 9.2 mph NNE14.8 kmh NNE 11.5 mph18.5 kmh 29.86 in1011.2 mb - 0.00 in0.0 mm 0.00 in0.0 mm
09:40 AM 74.3°F23.5°C 57.1°F13.9°C 55% 6.9 mph NW11.1 kmh NW 10.4 mph16.7 kmh 29.87 in1011.5 mb - 0.00 in0.0 mm 0.00 in0.0 mm
09:45 AM 74.4°F23.6°C 56.7°F13.7°C 54% 8.1 mph NW13.0 kmh NW 5.8 mph9.3 kmh 29.86 in1011.2 mb - 0.00 in0.0 mm 0.00 in0.0 mm
09:50 AM 74.8°F23.8°C 57.1°F13.9°C 54% 5.8 mph NW9.3 kmh NW 5.8 mph9.3 kmh 29.87 in1011.5 mb - 0.00 in0.0 mm 0.00 in0.0 mm
09:55 AM 75.4°F24.1°C 57.6°F14.2°C 54% 4.6 mph NNW7.4 kmh NNW 6.9 mph11.1 kmh 29.87 in1011.5 mb - 0.00 in0.0 mm 0.00 in0.0 mm
10:00 AM 75.6°F24.2°C 56.7°F13.7°C 52% 5.8 mph N9.3 kmh N 10.4 mph16.7 kmh 29.87 in1011.5 mb - 0.00 in0.0 mm 0.00 in0.0 mm
10:10 AM 75.4°F24.1°C 57.1°F13.9°C 53% 6.9 mph W11.1 kmh W 11.5 mph18.5 kmh 29.87 in1011.5 mb - 0.00 in0.0 mm 0.00 in0.0 mm
10:15 AM 75.9°F24.4°C 57.6°F14.2°C 53% 5.8 mph W9.3 kmh W 8.1 mph13.0 kmh 29.87 in1011.5 mb - 0.00 in0.0 mm 0.00 in0.0 mm
10:20 AM 76.5°F24.7°C 55.9°F13.3°C 49% 6.9 mph W11.1 kmh W 12.7 mph20.4 kmh 29.87 in1011.5 mb - 0.00 in0.0 mm 0.00 in0.0 mm
10:25 AM 75.9°F24.4°C 55.9°F13.3°C 50% 8.1 mph NNW13.0 kmh NNW 16.1 mph25.9 kmh 29.87 in1011.5 mb - 0.00 in0.0 mm 0.00 in0.0 mm
10:30 AM 76.1°F24.5°C 56.1°F13.4°C 50% 8.1 mph WNW13.0 kmh WNW 11.5 mph18.5 kmh 29.87 in1011.5 mb - 0.00 in0.0 mm 0.00 in0.0 mm
10:35 AM 76.5°F24.7°C 56.4°F13.6°C 50% 5.8 mph WSW9.3 kmh WSW 6.9 mph11.1 kmh 29.87 in1011.5 mb - 0.00 in0.0 mm 0.00 in0.0 mm
10:40 AM 77.1°F25.1°C 57.0°F13.9°C 50% 5.8 mph WNW9.3 kmh WNW 11.5 mph18.5 kmh 29.87 in1011.5 mb - 0.00 in0.0 mm 0.00 in0.0 mm
10:45 AM 76.5°F24.7°C 56.4°F13.6°C 50% 8.1 mph WSW13.0 kmh WSW 8.1 mph13.0 kmh 29.88 in1011.9 mb - 0.00 in0.0 mm 0.00 in0.0 mm
10:50 AM 76.5°F24.7°C 55.9°F13.3°C 49% 8.1 mph WNW13.0 kmh WNW 11.5 mph18.5 kmh 29.88 in1011.9 mb - 0.00 in0.0 mm 0.00 in0.0 mm
10:55 AM 76.3°F24.6°C 55.1°F12.8°C 48% 10.4 mph W16.7 kmh W 15.0 mph24.1 kmh 29.88 in1011.9 mb - 0.00 in0.0 mm 0.00 in0.0 mm
11:00 AM 76.5°F24.7°C 55.3°F12.9°C 48% 6.9 mph NW11.1 kmh NW 9.2 mph14.8 kmh 29.89 in1012.2 mb - 0.00 in0.0 mm 0.00 in0.0 mm
11:10 AM 77.1°F25.1°C 57.0°F13.9°C 50% 8.1 mph W13.0 kmh W 10.4 mph16.7 kmh 29.89 in1012.2 mb - 0.00 in0.0 mm 0.00 in0.0 mm
11:15 AM 77.4°F25.2°C 56.1°F13.4°C 48% 6.9 mph SW11.1 kmh SW 8.1 mph13.0 kmh 29.90 in1012.5 mb - 0.00 in0.0 mm 0.00 in0.0 mm
11:20 AM 77.2°F25.1°C 56.5°F13.6°C 49% 4.6 mph SSW7.4 kmh SSW 6.9 mph11.1 kmh 29.89 in1012.2 mb - 0.00 in0.0 mm 0.00 in0.0 mm
11:25 AM 77.9°F25.5°C 56.6°F13.7°C 48% 5.8 mph N9.3 kmh N 10.4 mph16.7 kmh 29.89 in1012.2 mb - 0.00 in0.0 mm 0.00 in0.0 mm
11:30 AM 77.5°F25.3°C 56.2°F13.4°C 48% 6.9 mph W11.1 kmh W 9.2 mph14.8 kmh 29.89 in1012.2 mb - 0.00 in0.0 mm 0.00 in0.0 mm
11:35 AM 77.4°F25.2°C 56.2°F13.4°C 48% 5.8 mph WNW9.3 kmh WNW 10.4 mph16.7 kmh 29.89 in1012.2 mb - 0.00 in0.0 mm 0.00 in0.0 mm
11:40 AM 77.4°F25.2°C 55.0°F12.8°C 46% 5.8 mph WSW9.3 kmh WSW 8.1 mph13.0 kmh 29.90 in1012.5 mb - 0.00 in0.0 mm 0.00 in0.0 mm
11:45 AM 78.3°F25.7°C 55.9°F13.3°C 46% 5.8 mph WSW9.3 kmh WSW 9.2 mph14.8 kmh 29.90 in1012.5 mb - 0.00 in0.0 mm 0.00 in0.0 mm
11:50 AM 78.1°F25.6°C 55.6°F13.1°C 46% 6.9 mph WSW11.1 kmh WSW 11.5 mph18.5 kmh 29.90 in1012.5 mb - 0.00 in0.0 mm 0.00 in0.0 mm
11:55 AM 78.2°F25.7°C 55.7°F13.2°C 46% 5.8 mph W9.3 kmh W 10.4 mph16.7 kmh 29.90 in1012.5 mb - 0.00 in0.0 mm 0.00 in0.0 mm
12:00 PM 77.5°F25.3°C 55.1°F12.8°C 46% 6.9 mph W11.1 kmh W 6.9 mph11.1 kmh 29.90 in1012.5 mb - 0.00 in0.0 mm 0.00 in0.0 mm
12:10 PM 78.9°F26.1°C 56.4°F13.6°C 46% 4.6 mph NW7.4 kmh NW 8.1 mph13.0 kmh 29.90 in1012.5 mb - 0.00 in0.0 mm 0.00 in0.0 mm
12:15 PM 79.1°F26.2°C 55.3°F12.9°C 44% 8.1 mph NW13.0 kmh NW 11.5 mph18.5 kmh 29.90 in1012.5 mb - 0.00 in0.0 mm 0.00 in0.0 mm
12:20 PM 79.0°F26.1°C 55.9°F13.3°C 45% 5.8 mph WNW9.3 kmh WNW 10.4 mph16.7 kmh 29.90 in1012.5 mb - 0.00 in0.0 mm 0.00 in0.0 mm
12:25 PM 79.3°F26.3°C 56.2°F13.4°C 45% 6.9 mph NW11.1 kmh NW 12.7 mph20.4 kmh 29.90 in1012.5 mb - 0.00 in0.0 mm 0.00 in0.0 mm
12:30 PM 79.1°F26.2°C 55.3°F12.9°C 44% 5.8 mph NW9.3 kmh NW 6.9 mph11.1 kmh 29.91 in1012.9 mb - 0.00 in0.0 mm 0.00 in0.0 mm
12:35 PM 79.8°F26.6°C 56.6°F13.7°C 45% 6.9 mph NW11.1 kmh NW 12.7 mph20.4 kmh 29.90 in1012.5 mb - 0.00 in0.0 mm 0.00 in0.0 mm
12:40 PM 79.0°F26.1°C 55.2°F12.9°C 44% 9.2 mph ENE14.8 kmh ENE 11.5 mph18.5 kmh 29.90 in1012.5 mb - 0.00 in0.0 mm 0.00 in0.0 mm
12:45 PM 79.5°F26.4°C 55.7°F13.2°C 44% 5.8 mph WNW9.3 kmh WNW 8.1 mph13.0 kmh 29.90 in1012.5 mb - 0.00 in0.0 mm 0.00 in0.0 mm
12:50 PM 79.9°F26.6°C 55.4°F13.0°C 43% 6.9 mph W11.1 kmh W 10.4 mph16.7 kmh 29.90 in1012.5 mb - 0.00 in0.0 mm 0.00 in0.0 mm
12:55 PM 80.1°F26.7°C 56.2°F13.4°C 44% 5.8 mph W9.3 kmh W 15.0 mph24.1 kmh 29.90 in1012.5 mb - 0.00 in0.0 mm 0.00 in0.0 mm
01:00 PM 80.1°F26.7°C 56.2°F13.4°C 44% 5.8 mph NNW9.3 kmh NNW 10.4 mph16.7 kmh 29.90 in1012.5 mb - 0.00 in0.0 mm 0.00 in0.0 mm
01:10 PM 79.9°F26.6°C 56.0°F13.3°C 44% 6.9 mph WNW11.1 kmh WNW 9.2 mph14.8 kmh 29.90 in1012.5 mb - 0.00 in0.0 mm 0.00 in0.0 mm
01:15 PM 80.0°F26.7°C 56.1°F13.4°C 44% 6.9 mph W11.1 kmh W 10.4 mph16.7 kmh 29.90 in1012.5 mb - 0.00 in0.0 mm 0.00 in0.0 mm
01:20 PM 80.1°F26.7°C 56.2°F13.4°C 44% 8.1 mph W13.0 kmh W 11.5 mph18.5 kmh 29.89 in1012.2 mb - 0.00 in0.0 mm 0.00 in0.0 mm
01:25 PM 80.1°F26.7°C 56.2°F13.4°C 44% 5.8 mph NW9.3 kmh NW 5.8 mph9.3 kmh 29.89 in1012.2 mb - 0.00 in0.0 mm 0.00 in0.0 mm
01:30 PM 80.1°F26.7°C 55.6°F13.1°C 43% 6.9 mph SW11.1 kmh SW 10.4 mph16.7 kmh 29.89 in1012.2 mb - 0.00 in0.0 mm 0.00 in0.0 mm
01:35 PM 80.4°F26.9°C 55.8°F13.2°C 43% 6.9 mph NW11.1 kmh NW 10.4 mph16.7 kmh 29.89 in1012.2 mb - 0.00 in0.0 mm 0.00 in0.0 mm
01:40 PM 79.9°F26.6°C 55.4°F13.0°C 43% 6.9 mph W11.1 kmh W 6.9 mph11.1 kmh 29.88 in1011.9 mb - 0.00 in0.0 mm 0.00 in0.0 mm
01:45 PM 81.0°F27.2°C 56.4°F13.6°C 43% 4.6 mph WSW7.4 kmh WSW 3.5 mph5.6 kmh 29.88 in1011.9 mb - 0.00 in0.0 mm 0.00 in0.0 mm
01:50 PM 81.3°F27.4°C 55.4°F13.0°C 41% 6.9 mph E11.1 kmh E 11.5 mph18.5 kmh 29.89 in1012.2 mb - 0.00 in0.0 mm 0.00 in0.0 mm
01:55 PM 81.3°F27.4°C 56.0°F13.3°C 42% 6.9 mph NW11.1 kmh NW 10.4 mph16.7 kmh 29.88 in1011.9 mb - 0.00 in0.0 mm 0.00 in0.0 mm
02:00 PM 81.3°F27.4°C 55.4°F13.0°C 41% 5.8 mph WNW9.3 kmh WNW 10.4 mph16.7 kmh 29.88 in1011.9 mb - 0.00 in0.0 mm 0.00 in0.0 mm
02:10 PM 81.9°F27.7°C 56.5°F13.6°C 42% 5.8 mph WSW9.3 kmh WSW 4.6 mph7.4 kmh 29.88 in1011.9 mb - 0.00 in0.0 mm 0.00 in0.0 mm
02:15 PM 81.8°F27.7°C 55.1°F12.8°C 40% 5.8 mph WNW9.3 kmh WNW 9.2 mph14.8 kmh 29.88 in1011.9 mb - 0.00 in0.0 mm 0.00 in0.0 mm
02:20 PM 81.5°F27.5°C 54.9°F12.7°C 40% 4.6 mph WSW7.4 kmh WSW 4.6 mph7.4 kmh 29.88 in1011.9 mb - 0.00 in0.0 mm 0.00 in0.0 mm
02:25 PM 81.9°F27.7°C 55.9°F13.3°C 41% 5.8 mph N9.3 kmh N 5.8 mph9.3 kmh 29.88 in1011.9 mb - 0.00 in0.0 mm 0.00 in0.0 mm
02:30 PM 81.9°F27.7°C 55.9°F13.3°C 41% 5.8 mph W9.3 kmh W 10.4 mph16.7 kmh 29.88 in1011.9 mb - 0.00 in0.0 mm 0.00 in0.0 mm
02:35 PM 81.9°F27.7°C 57.2°F14.0°C 43% 4.6 mph W7.4 kmh W 2.3 mph3.7 kmh 29.88 in1011.9 mb - 0.00 in0.0 mm 0.00 in0.0 mm
02:40 PM 82.8°F28.2°C 56.0°F13.3°C 40% 4.6 mph N7.4 kmh N 5.8 mph9.3 kmh 29.88 in1011.9 mb - 0.00 in0.0 mm 0.00 in0.0 mm
02:45 PM 83.7°F28.7°C 56.8°F13.8°C 40% 4.6 mph NNW7.4 kmh NNW 9.2 mph14.8 kmh 29.89 in1012.2 mb - 0.00 in0.0 mm 0.00 in0.0 mm
02:50 PM 82.4°F28.0°C 55.6°F13.1°C 40% 5.8 mph WNW9.3 kmh WNW 8.1 mph13.0 kmh 29.89 in1012.2 mb - 0.00 in0.0 mm 0.00 in0.0 mm
02:55 PM 82.0°F27.8°C 55.3°F12.9°C 40% 6.9 mph NW11.1 kmh NW 5.8 mph9.3 kmh 29.90 in1012.5 mb - 0.00 in0.0 mm 0.00 in0.0 mm
03:00 PM 82.8°F28.2°C 55.3°F12.9°C 39% 4.6 mph W7.4 kmh W 11.5 mph18.5 kmh 29.90 in1012.5 mb - 0.00 in0.0 mm 0.00 in0.0 mm
03:10 PM 82.8°F28.2°C 54.6°F12.6°C 38% 4.6 mph SW7.4 kmh SW 5.8 mph9.3 kmh 29.90 in1012.5 mb - 0.00 in0.0 mm 0.00 in0.0 mm
03:15 PM 82.5°F28.1°C 53.6°F12.0°C 37% 5.8 mph WSW9.3 kmh WSW 8.1 mph13.0 kmh 29.90 in1012.5 mb - 0.00 in0.0 mm 0.00 in0.0 mm
03:20 PM 82.7°F28.2°C 55.2°F12.9°C 39% 4.6 mph N7.4 kmh N 4.6 mph7.4 kmh 29.89 in1012.2 mb - 0.00 in0.0 mm 0.00 in0.0 mm
03:25 PM 82.3°F27.9°C 53.4°F11.9°C 37% 5.8 mph NW9.3 kmh NW 4.6 mph7.4 kmh 29.90 in1012.5 mb - 0.00 in0.0 mm 0.00 in0.0 mm
03:30 PM 82.6°F28.1°C 53.7°F12.1°C 37% 3.5 mph SW5.6 kmh SW 11.5 mph18.5 kmh 29.90 in1012.5 mb - 0.00 in0.0 mm 0.00 in0.0 mm
03:35 PM 82.8°F28.2°C 53.8°F12.1°C 37% 5.8 mph WNW9.3 kmh WNW 8.1 mph13.0 kmh 29.90 in1012.5 mb - 0.00 in0.0 mm 0.00 in0.0 mm
03:40 PM 82.1°F27.8°C 53.3°F11.8°C 37% 5.8 mph WNW9.3 kmh WNW 5.8 mph9.3 kmh 29.88 in1011.9 mb - 0.00 in0.0 mm 0.00 in0.0 mm
03:45 PM 82.2°F27.9°C 53.3°F11.8°C 37% 4.6 mph SW7.4 kmh SW 3.5 mph5.6 kmh 29.88 in1011.9 mb - 0.00 in0.0 mm 0.00 in0.0 mm
03:50 PM 82.8°F28.2°C 55.3°F12.9°C 39% 3.5 mph WSW5.6 kmh WSW 3.5 mph5.6 kmh 29.88 in1011.9 mb - 0.00 in0.0 mm 0.00 in0.0 mm
03:55 PM 83.7°F28.7°C 54.7°F12.6°C 37% 3.5 mph NW5.6 kmh NW 5.8 mph9.3 kmh 29.89 in1012.2 mb - 0.00 in0.0 mm 0.00 in0.0 mm
04:00 PM 83.4°F28.6°C 52.9°F11.6°C 35% 5.8 mph NW9.3 kmh NW 8.1 mph13.0 kmh 29.88 in1011.9 mb - 0.00 in0.0 mm 0.00 in0.0 mm
04:10 PM 82.8°F28.2°C 52.3°F11.3°C 35% 4.6 mph NW7.4 kmh NW 3.5 mph5.6 kmh 29.88 in1011.9 mb - 0.00 in0.0 mm 0.00 in0.0 mm
04:15 PM 82.9°F28.3°C 52.5°F11.4°C 35% 4.6 mph W7.4 kmh W 4.6 mph7.4 kmh 29.88 in1011.9 mb - 0.00 in0.0 mm 0.00 in0.0 mm
04:20 PM 83.3°F28.5°C 52.8°F11.6°C 35% 3.5 mph W5.6 kmh W 5.8 mph9.3 kmh 29.89 in1012.2 mb - 0.00 in0.0 mm 0.00 in0.0 mm
04:25 PM 83.7°F28.7°C 53.1°F11.7°C 35% 4.6 mph WSW7.4 kmh WSW 11.5 mph18.5 kmh 29.88 in1011.9 mb - 0.00 in0.0 mm 0.00 in0.0 mm
04:30 PM 82.8°F28.2°C 53.1°F11.7°C 36% 5.8 mph WNW9.3 kmh WNW 3.5 mph5.6 kmh 29.89 in1012.2 mb - 0.00 in0.0 mm 0.00 in0.0 mm
04:35 PM 82.9°F28.3°C 53.9°F12.2°C 37% 3.5 mph W5.6 kmh W 5.8 mph9.3 kmh 29.89 in1012.2 mb - 0.00 in0.0 mm 0.00 in0.0 mm
04:40 PM 82.6°F28.1°C 53.7°F12.1°C 37% 4.6 mph W7.4 kmh W 11.5 mph18.5 kmh 29.89 in1012.2 mb - 0.00 in0.0 mm 0.00 in0.0 mm
04:45 PM 81.9°F27.7°C 53.1°F11.7°C 37% 5.8 mph NW9.3 kmh NW 4.6 mph7.4 kmh 29.89 in1012.2 mb - 0.00 in0.0 mm 0.00 in0.0 mm
04:50 PM 82.3°F27.9°C 53.5°F11.9°C 37% 3.5 mph W5.6 kmh W 8.1 mph13.0 kmh 29.89 in1012.2 mb - 0.00 in0.0 mm 0.00 in0.0 mm
04:55 PM 82.6°F28.1°C 53.7°F12.1°C 37% 5.8 mph W9.3 kmh W 8.1 mph13.0 kmh 29.89 in1012.2 mb - 0.00 in0.0 mm 0.00 in0.0 mm
05:00 PM 82.2°F27.9°C 53.4°F11.9°C 37% 5.8 mph WSW9.3 kmh WSW 6.9 mph11.1 kmh 29.90 in1012.5 mb - 0.00 in0.0 mm 0.00 in0.0 mm
05:10 PM 82.2°F27.9°C 53.4°F11.9°C 37% 3.5 mph NNW5.6 kmh NNW 3.5 mph5.6 kmh 29.90 in1012.5 mb - 0.00 in0.0 mm 0.00 in0.0 mm
05:15 PM 82.0°F27.8°C 53.2°F11.8°C 37% 4.6 mph WNW7.4 kmh WNW 9.2 mph14.8 kmh 29.90 in1012.5 mb - 0.00 in0.0 mm 0.00 in0.0 mm
05:20 PM 81.9°F27.7°C 53.1°F11.7°C 37% 6.9 mph NW11.1 kmh NW 10.4 mph16.7 kmh 29.91 in1012.9 mb - 0.00 in0.0 mm 0.00 in0.0 mm
05:25 PM 81.7°F27.6°C 52.9°F11.6°C 37% 5.8 mph W9.3 kmh W 6.9 mph11.1 kmh 29.90 in1012.5 mb - 0.00 in0.0 mm 0.00 in0.0 mm
05:30 PM 81.8°F27.7°C 54.4°F12.4°C 39% 5.8 mph W9.3 kmh W 8.1 mph13.0 kmh 29.91 in1012.9 mb - 0.00 in0.0 mm 0.00 in0.0 mm
05:35 PM 81.9°F27.7°C 53.0°F11.7°C 37% 4.6 mph WSW7.4 kmh WSW 6.9 mph11.1 kmh 29.90 in1012.5 mb - 0.00 in0.0 mm 0.00 in0.0 mm
05:40 PM 81.5°F27.5°C 52.7°F11.5°C 37% 5.8 mph WNW9.3 kmh WNW 4.6 mph7.4 kmh 29.90 in1012.5 mb - 0.00 in0.0 mm 0.00 in0.0 mm
05:45 PM 81.3°F27.4°C 52.6°F11.4°C 37% 4.6 mph WNW7.4 kmh WNW 5.8 mph9.3 kmh 29.90 in1012.5 mb - 0.00 in0.0 mm 0.00 in0.0 mm
05:50 PM 81.0°F27.2°C 52.2°F11.2°C 37% 4.6 mph W7.4 kmh W 4.6 mph7.4 kmh 29.90 in1012.5 mb - 0.00 in0.0 mm 0.00 in0.0 mm
05:55 PM 81.0°F27.2°C 53.7°F12.1°C 39% 5.8 mph SSW9.3 kmh SSW 4.6 mph7.4 kmh 29.91 in1012.9 mb - 0.00 in0.0 mm 0.00 in0.0 mm
06:00 PM 80.9°F27.2°C 54.3°F12.4°C 40% 4.6 mph NNW7.4 kmh NNW 8.1 mph13.0 kmh 29.90 in1012.5 mb - 0.00 in0.0 mm 0.00 in0.0 mm
06:10 PM 80.8°F27.1°C 54.2°F12.3°C 40% 3.5 mph NNE5.6 kmh NNE 3.5 mph5.6 kmh 29.90 in1012.5 mb - 0.00 in0.0 mm 0.00 in0.0 mm
06:15 PM 81.0°F27.2°C 54.4°F12.4°C 40% 3.5 mph NW5.6 kmh NW 4.6 mph7.4 kmh 29.89 in1012.2 mb - 0.00 in0.0 mm 0.00 in0.0 mm
06:20 PM 81.0°F27.2°C 54.4°F12.4°C 40% 4.6 mph W7.4 kmh W 5.8 mph9.3 kmh 29.89 in1012.2 mb - 0.00 in0.0 mm 0.00 in0.0 mm
06:25 PM 80.8°F27.1°C 54.2°F12.3°C 40% 3.5 mph W5.6 kmh W 5.8 mph9.3 kmh 29.90 in1012.5 mb - 0.00 in0.0 mm 0.00 in0.0 mm
06:30 PM 81.2°F27.3°C 54.6°F12.6°C 40% 2.3 mph W3.7 kmh W 3.5 mph5.6 kmh 29.89 in1012.2 mb - 0.00 in0.0 mm 0.00 in0.0 mm
06:35 PM 81.0°F27.2°C 54.4°F12.4°C 40% 3.5 mph WSW5.6 kmh WSW 3.5 mph5.6 kmh 29.89 in1012.2 mb - 0.00 in0.0 mm 0.00 in0.0 mm
06:40 PM 81.3°F27.4°C 54.7°F12.6°C 40% 3.5 mph NNW5.6 kmh NNW 3.5 mph5.6 kmh 29.89 in1012.2 mb - 0.00 in0.0 mm 0.00 in0.0 mm
06:45 PM 81.0°F27.2°C 54.4°F12.4°C 40% 4.6 mph W7.4 kmh W 3.5 mph5.6 kmh 29.89 in1012.2 mb - 0.00 in0.0 mm 0.00 in0.0 mm
06:50 PM 81.0°F27.2°C 54.4°F12.4°C 40% 4.6 mph SW7.4 kmh SW 5.8 mph9.3 kmh 29.89 in1012.2 mb - 0.00 in0.0 mm 0.00 in0.0 mm
06:55 PM 80.1°F26.7°C 53.6°F12.0°C 40% 4.6 mph NW7.4 kmh NW 4.6 mph7.4 kmh 29.89 in1012.2 mb - 0.00 in0.0 mm 0.00 in0.0 mm
07:00 PM 80.1°F26.7°C 54.2°F12.3°C 41% 3.5 mph W5.6 kmh W 8.1 mph13.0 kmh 29.89 in1012.2 mb - 0.00 in0.0 mm 0.00 in0.0 mm
07:10 PM 79.3°F26.3°C 54.9°F12.7°C 43% 3.5 mph E5.6 kmh E 4.6 mph7.4 kmh 29.89 in1012.2 mb - 0.00 in0.0 mm 0.00 in0.0 mm
07:15 PM 79.5°F26.4°C 55.1°F12.8°C 43% 2.3 mph W3.7 kmh W 3.5 mph5.6 kmh 29.89 in1012.2 mb - 0.00 in0.0 mm 0.00 in0.0 mm
07:20 PM 79.4°F26.3°C 55.0°F12.8°C 43% 2.3 mph WSW3.7 kmh WSW 3.5 mph5.6 kmh 29.89 in1012.2 mb - 0.00 in0.0 mm 0.00 in0.0 mm
07:25 PM 79.3°F26.3°C 53.6°F12.0°C 41% 3.5 mph WSW5.6 kmh WSW 5.8 mph9.3 kmh 29.90 in1012.5 mb - 0.00 in0.0 mm 0.00 in0.0 mm
07:30 PM 79.2°F26.2°C 53.5°F11.9°C 41% 4.6 mph W7.4 kmh W 6.9 mph11.1 kmh 29.90 in1012.5 mb - 0.00 in0.0 mm 0.00 in0.0 mm
07:35 PM 78.8°F26.0°C 55.0°F12.8°C 44% 3.5 mph NNW5.6 kmh NNW 2.3 mph3.7 kmh 29.90 in1012.5 mb - 0.00 in0.0 mm 0.00 in0.0 mm
07:40 PM 78.4°F25.8°C 54.1°F12.3°C 43% 3.5 mph NW5.6 kmh NW 3.5 mph5.6 kmh 29.89 in1012.2 mb - 0.00 in0.0 mm 0.00 in0.0 mm
07:45 PM 78.4°F25.8°C 54.7°F12.6°C 44% 2.3 mph WSW3.7 kmh WSW 2.3 mph3.7 kmh 29.90 in1012.5 mb - 0.00 in0.0 mm 0.00 in0.0 mm
07:50 PM 78.3°F25.7°C 55.2°F12.9°C 45% 1.2 mph N1.9 kmh N 1.2 mph1.9 kmh 29.89 in1012.2 mb - 0.00 in0.0 mm 0.00 in0.0 mm
07:55 PM 78.2°F25.7°C 55.2°F12.9°C 45% 2.3 mph W3.7 kmh W 3.5 mph5.6 kmh 29.90 in1012.5 mb - 0.00 in0.0 mm 0.00 in0.0 mm
08:00 PM 77.5°F25.3°C 54.5°F12.5°C 45% 1.2 mph WSW1.9 kmh WSW 3.5 mph5.6 kmh 29.89 in1012.2 mb - 0.00 in0.0 mm 0.00 in0.0 mm
08:10 PM 77.2°F25.1°C 54.2°F12.3°C 45% 2.3 mph W3.7 kmh W 2.3 mph3.7 kmh 29.90 in1012.5 mb - 0.00 in0.0 mm 0.00 in0.0 mm
08:15 PM 76.5°F24.7°C 53.6°F12.0°C 45% 1.2 mph SW1.9 kmh SW 1.2 mph1.9 kmh 29.90 in1012.5 mb - 0.00 in0.0 mm 0.00 in0.0 mm
08:20 PM 77.5°F25.3°C 54.5°F12.5°C 45% 1.2 mph W1.9 kmh W 2.3 mph3.7 kmh 29.90 in1012.5 mb - 0.00 in0.0 mm 0.00 in0.0 mm
08:25 PM 77.1°F25.1°C 54.1°F12.3°C 45% 1.2 mph WSW1.9 kmh WSW 1.2 mph1.9 kmh 29.90 in1012.5 mb - 0.00 in0.0 mm 0.00 in0.0 mm
08:30 PM 76.4°F24.7°C 54.1°F12.3°C 46% 1.2 mph W1.9 kmh W 2.3 mph3.7 kmh 29.89 in1012.2 mb - 0.00 in0.0 mm 0.00 in0.0 mm
08:35 PM 75.5°F24.2°C 54.4°F12.4°C 48% 1.2 mph SSW1.9 kmh SSW 2.3 mph3.7 kmh 29.90 in1012.5 mb - 0.00 in0.0 mm 0.00 in0.0 mm
08:40 PM 74.8°F23.8°C 54.3°F12.4°C 49% Calm Calm 1.2 mph1.9 kmh 29.90 in1012.5 mb - 0.00 in0.0 mm 0.00 in0.0 mm
08:45 PM 73.9°F23.3°C 54.0°F12.2°C 50% Calm Calm 1.2 mph1.9 kmh 29.90 in1012.5 mb - 0.00 in0.0 mm 0.00 in0.0 mm
08:50 PM 73.0°F22.8°C 53.8°F12.1°C 51% Calm Calm -- 29.90 in1012.5 mb - 0.00 in0.0 mm 0.00 in0.0 mm
08:55 PM 72.5°F22.5°C 54.4°F12.4°C 53% Calm Calm 1.2 mph1.9 kmh 29.91 in1012.9 mb - 0.00 in0.0 mm 0.00 in0.0 mm
09:00 PM 71.9°F22.2°C 53.8°F12.1°C 53% Calm Calm -- 29.91 in1012.9 mb - 0.00 in0.0 mm 0.00 in0.0 mm
09:10 PM 70.7°F21.5°C 53.7°F12.1°C 55% Calm Calm -- 29.91 in1012.9 mb - 0.00 in0.0 mm 0.00 in0.0 mm
09:15 PM 70.1°F21.2°C 53.2°F11.8°C 55% Calm Calm -- 29.91 in1012.9 mb - 0.00 in0.0 mm 0.00 in0.0 mm
09:20 PM 69.6°F20.9°C 53.2°F11.8°C 56% Calm Calm -- 29.91 in1012.9 mb - 0.00 in0.0 mm 0.00 in0.0 mm
09:25 PM 69.0°F20.6°C 53.6°F12.0°C 58% Calm Calm -- 29.91 in1012.9 mb - 0.00 in0.0 mm 0.00 in0.0 mm
09:30 PM 68.4°F20.2°C 53.0°F11.7°C 58% Calm Calm -- 29.91 in1012.9 mb - 0.00 in0.0 mm 0.00 in0.0 mm
09:35 PM 68.0°F20.0°C 53.6°F12.0°C 60% Calm Calm -- 29.92 in1013.2 mb - 0.00 in0.0 mm 0.00 in0.0 mm
09:40 PM 67.5°F19.7°C 53.5°F11.9°C 61% Calm Calm -- 29.92 in1013.2 mb - 0.00 in0.0 mm 0.00 in0.0 mm
09:45 PM 67.1°F19.5°C 53.2°F11.8°C 61% Calm Calm -- 29.92 in1013.2 mb - 0.00 in0.0 mm 0.00 in0.0 mm
09:50 PM 66.6°F19.2°C 53.1°F11.7°C 62% Calm Calm -- 29.92 in1013.2 mb - 0.00 in0.0 mm 0.00 in0.0 mm
09:55 PM 66.6°F19.2°C 53.6°F12.0°C 63% Calm Calm -- 29.92 in1013.2 mb - 0.00 in0.0 mm 0.00 in0.0 mm
10:00 PM 66.0°F18.9°C 53.0°F11.7°C 63% Calm Calm -- 29.92 in1013.2 mb - 0.00 in0.0 mm 0.00 in0.0 mm
10:10 PM 65.7°F18.7°C 52.7°F11.5°C 63% Calm Calm -- 29.92 in1013.2 mb - 0.00 in0.0 mm 0.00 in0.0 mm
10:15 PM 65.7°F18.7°C 53.6°F12.0°C 65% Calm Calm -- 29.93 in1013.5 mb - 0.00 in0.0 mm 0.00 in0.0 mm
10:20 PM 65.3°F18.5°C 53.6°F12.0°C 66% Calm Calm -- 29.93 in1013.5 mb - 0.00 in0.0 mm 0.00 in0.0 mm
10:25 PM 64.9°F18.3°C 54.1°F12.3°C 68% Calm Calm -- 29.93 in1013.5 mb - 0.00 in0.0 mm 0.00 in0.0 mm
10:30 PM 64.8°F18.2°C 54.3°F12.4°C 69% Calm Calm -- 29.93 in1013.5 mb - 0.00 in0.0 mm 0.00 in0.0 mm
10:35 PM 64.4°F18.0°C 54.4°F12.4°C 70% Calm Calm -- 29.93 in1013.5 mb - 0.00 in0.0 mm 0.00 in0.0 mm
10:40 PM 63.9°F17.7°C 53.9°F12.2°C 70% Calm Calm -- 29.94 in1013.9 mb - 0.00 in0.0 mm 0.00 in0.0 mm
10:45 PM 63.7°F17.6°C 53.7°F12.1°C 70% Calm Calm -- 29.93 in1013.5 mb - 0.00 in0.0 mm 0.00 in0.0 mm
10:50 PM 63.1°F17.3°C 53.6°F12.0°C 71% Calm Calm -- 29.93 in1013.5 mb - 0.00 in0.0 mm 0.00 in0.0 mm
10:55 PM 63.0°F17.2°C 54.5°F12.5°C 74% Calm Calm -- 29.93 in1013.5 mb - 0.00 in0.0 mm 0.00 in0.0 mm
11:00 PM 62.4°F16.9°C 54.0°F12.2°C 74% Calm Calm -- 29.93 in1013.5 mb - 0.00 in0.0 mm 0.00 in0.0 mm
11:10 PM 62.0°F16.7°C 54.0°F12.2°C 75% Calm Calm -- 29.93 in1013.5 mb - 0.00 in0.0 mm 0.00 in0.0 mm
11:15 PM 61.7°F16.5°C 53.7°F12.1°C 75% Calm Calm -- 29.93 in1013.5 mb - 0.00 in0.0 mm 0.00 in0.0 mm
11:20 PM 61.5°F16.4°C 53.5°F11.9°C 75% Calm Calm -- 29.93 in1013.5 mb - 0.00 in0.0 mm 0.00 in0.0 mm
11:25 PM 61.2°F16.2°C 53.2°F11.8°C 75% Calm Calm -- 29.93 in1013.5 mb - 0.00 in0.0 mm 0.00 in0.0 mm
11:30 PM 61.0°F16.1°C 53.0°F11.7°C 75% Calm Calm -- 29.92 in1013.2 mb - 0.00 in0.0 mm 0.00 in0.0 mm
11:35 PM 60.6°F15.9°C 52.6°F11.4°C 75% Calm Calm -- 29.92 in1013.2 mb - 0.00 in0.0 mm 0.00 in0.0 mm
11:40 PM 60.4°F15.8°C 52.5°F11.4°C 75% Calm Calm -- 29.93 in1013.5 mb - 0.00 in0.0 mm 0.00 in0.0 mm
11:45 PM 60.3°F15.7°C 52.3°F11.3°C 75% Calm Calm -- 29.93 in1013.5 mb - 0.00 in0.0 mm 0.00 in0.0 mm
11:50 PM 60.1°F15.6°C 52.1°F11.2°C 75% Calm Calm -- 29.93 in1013.5 mb - 0.00 in0.0 mm 0.00 in0.0 mm
11:55 PM 59.9°F15.5°C 52.0°F11.1°C 75% Calm Calm -- 29.93 in1013.5 mb - 0.00 in0.0 mm 0.00 in0.0 mm